sensor_id;sensor_type;location;lat;lon;timestamp;P1;durP1;ratioP1;P2;durP2;ratioP2
40757;SDS011;26462;47.384;19.218;2022-12-11T00:01:40;13.57;;;6.68;;
40757;SDS011;26462;47.384;19.218;2022-12-11T00:04:08;16.60;;;7.15;;
40757;SDS011;26462;47.384;19.218;2022-12-11T00:06:35;15.90;;;7.22;;
40757;SDS011;26462;47.384;19.218;2022-12-11T00:09:03;13.00;;;5.38;;
40757;SDS011;26462;47.384;19.218;2022-12-11T00:11:30;13.18;;;5.88;;
40757;SDS011;26462;47.384;19.218;2022-12-11T00:13:57;14.70;;;6.30;;
40757;SDS011;26462;47.384;19.218;2022-12-11T00:16:25;10.30;;;4.80;;
40757;SDS011;26462;47.384;19.218;2022-12-11T00:18:53;13.35;;;6.10;;
40757;SDS011;26462;47.384;19.218;2022-12-11T00:21:21;13.10;;;5.97;;
40757;SDS011;26462;47.384;19.218;2022-12-11T00:23:48;15.27;;;5.80;;
40757;SDS011;26462;47.384;19.218;2022-12-11T00:26:15;13.35;;;5.70;;
40757;SDS011;26462;47.384;19.218;2022-12-11T00:28:45;12.95;;;6.43;;
40757;SDS011;26462;47.384;19.218;2022-12-11T00:31:14;12.95;;;6.07;;
40757;SDS011;26462;47.384;19.218;2022-12-11T00:33:43;14.10;;;6.90;;
40757;SDS011;26462;47.384;19.218;2022-12-11T00:36:12;13.25;;;6.32;;
40757;SDS011;26462;47.384;19.218;2022-12-11T00:38:44;12.90;;;6.40;;
40757;SDS011;26462;47.384;19.218;2022-12-11T00:41:13;13.50;;;5.57;;
40757;SDS011;26462;47.384;19.218;2022-12-11T00:43:41;12.43;;;4.82;;
40757;SDS011;26462;47.384;19.218;2022-12-11T00:46:09;12.85;;;6.30;;
40757;SDS011;26462;47.384;19.218;2022-12-11T00:48:38;12.00;;;4.93;;
40757;SDS011;26462;47.384;19.218;2022-12-11T00:51:06;12.23;;;5.40;;
40757;SDS011;26462;47.384;19.218;2022-12-11T00:53:34;10.70;;;5.30;;
40757;SDS011;26462;47.384;19.218;2022-12-11T00:56:37;11.32;;;5.28;;
40757;SDS011;26462;47.384;19.218;2022-12-11T00:58:58;11.73;;;4.80;;
40757;SDS011;26462;47.384;19.218;2022-12-11T01:01:25;13.00;;;4.60;;
40757;SDS011;26462;47.384;19.218;2022-12-11T01:03:53;11.82;;;4.63;;
40757;SDS011;26462;47.384;19.218;2022-12-11T01:06:21;10.98;;;4.82;;
40757;SDS011;26462;47.384;19.218;2022-12-11T01:08:50;14.45;;;6.88;;
40757;SDS011;26462;47.384;19.218;2022-12-11T01:11:40;13.77;;;5.68;;
40757;SDS011;26462;47.384;19.218;2022-12-11T01:14:09;17.85;;;7.03;;
40757;SDS011;26462;47.384;19.218;2022-12-11T01:16:37;14.30;;;6.60;;
40757;SDS011;26462;47.384;19.218;2022-12-11T01:19:05;12.73;;;5.88;;
40757;SDS011;26462;47.384;19.218;2022-12-11T01:21:36;12.95;;;6.18;;
40757;SDS011;26462;47.384;19.218;2022-12-11T01:24:04;11.00;;;5.55;;
40757;SDS011;26462;47.384;19.218;2022-12-11T01:26:36;15.27;;;7.15;;
40757;SDS011;26462;47.384;19.218;2022-12-11T01:29:04;14.75;;;7.40;;
40757;SDS011;26462;47.384;19.218;2022-12-11T01:31:31;13.77;;;5.88;;
40757;SDS011;26462;47.384;19.218;2022-12-11T01:33:59;13.25;;;6.28;;
40757;SDS011;26462;47.384;19.218;2022-12-11T01:36:27;15.05;;;6.47;;
40757;SDS011;26462;47.384;19.218;2022-12-11T01:38:54;12.95;;;5.55;;
40757;SDS011;26462;47.384;19.218;2022-12-11T01:41:22;13.32;;;6.63;;
40757;SDS011;26462;47.384;19.218;2022-12-11T01:44:06;12.85;;;5.82;;
40757;SDS011;26462;47.384;19.218;2022-12-11T01:46:54;12.73;;;5.28;;
40757;SDS011;26462;47.384;19.218;2022-12-11T01:52:05;12.48;;;5.32;;
40757;SDS011;26462;47.384;19.218;2022-12-11T01:54:38;11.55;;;5.10;;
40757;SDS011;26462;47.384;19.218;2022-12-11T01:57:06;11.82;;;5.95;;
40757;SDS011;26462;47.384;19.218;2022-12-11T01:59:38;13.82;;;6.45;;
40757;SDS011;26462;47.384;19.218;2022-12-11T02:05:09;9.98;;;4.55;;
40757;SDS011;26462;47.384;19.218;2022-12-11T02:07:39;11.73;;;6.35;;
40757;SDS011;26462;47.384;19.218;2022-12-11T02:10:14;13.93;;;5.50;;
40757;SDS011;26462;47.384;19.218;2022-12-11T02:12:47;9.75;;;4.28;;
40757;SDS011;26462;47.384;19.218;2022-12-11T02:23:36;10.65;;;4.88;;
40757;SDS011;26462;47.384;19.218;2022-12-11T02:29:17;10.27;;;4.30;;
40757;SDS011;26462;47.384;19.218;2022-12-11T02:32:03;9.23;;;4.18;;
40757;SDS011;26462;47.384;19.218;2022-12-11T02:34:41;8.45;;;3.40;;
40757;SDS011;26462;47.384;19.218;2022-12-11T02:37:14;8.45;;;3.60;;
40757;SDS011;26462;47.384;19.218;2022-12-11T02:39:48;9.52;;;4.43;;
40757;SDS011;26462;47.384;19.218;2022-12-11T02:42:18;9.27;;;4.78;;
40757;SDS011;26462;47.384;19.218;2022-12-11T02:44:47;8.35;;;3.80;;
40757;SDS011;26462;47.384;19.218;2022-12-11T02:47:16;7.85;;;3.35;;
40757;SDS011;26462;47.384;19.218;2022-12-11T02:49:48;8.07;;;3.50;;
40757;SDS011;26462;47.384;19.218;2022-12-11T02:52:18;8.85;;;3.47;;
40757;SDS011;26462;47.384;19.218;2022-12-11T02:54:52;7.88;;;3.75;;
40757;SDS011;26462;47.384;19.218;2022-12-11T02:57:24;8.82;;;3.22;;
40757;SDS011;26462;47.384;19.218;2022-12-11T02:59:59;6.80;;;2.70;;
40757;SDS011;26462;47.384;19.218;2022-12-11T03:02:26;8.73;;;3.92;;
40757;SDS011;26462;47.384;19.218;2022-12-11T03:04:54;7.35;;;3.55;;
40757;SDS011;26462;47.384;19.218;2022-12-11T03:07:30;7.57;;;2.88;;
40757;SDS011;26462;47.384;19.218;2022-12-11T03:10:00;8.13;;;2.95;;
40757;SDS011;26462;47.384;19.218;2022-12-11T03:12:30;6.72;;;3.47;;
40757;SDS011;26462;47.384;19.218;2022-12-11T03:15:03;7.88;;;2.95;;
40757;SDS011;26462;47.384;19.218;2022-12-11T03:20:13;7.20;;;2.88;;
40757;SDS011;26462;47.384;19.218;2022-12-11T03:25:52;5.60;;;2.60;;
40757;SDS011;26462;47.384;19.218;2022-12-11T03:28:30;6.22;;;2.13;;
40757;SDS011;26462;47.384;19.218;2022-12-11T03:31:02;4.45;;;2.28;;
40757;SDS011;26462;47.384;19.218;2022-12-11T03:33:36;5.57;;;2.53;;
40757;SDS011;26462;47.384;19.218;2022-12-11T03:36:08;7.90;;;3.25;;
40757;SDS011;26462;47.384;19.218;2022-12-11T03:38:40;6.03;;;2.55;;
40757;SDS011;26462;47.384;19.218;2022-12-11T03:41:17;6.72;;;2.95;;
40757;SDS011;26462;47.384;19.218;2022-12-11T03:43:48;5.05;;;2.70;;
40757;SDS011;26462;47.384;19.218;2022-12-11T03:46:19;5.43;;;2.17;;
40757;SDS011;26462;47.384;19.218;2022-12-11T03:48:55;5.07;;;1.58;;
40757;SDS011;26462;47.384;19.218;2022-12-11T03:51:27;4.85;;;1.83;;
40757;SDS011;26462;47.384;19.218;2022-12-11T03:53:57;4.53;;;2.08;;
40757;SDS011;26462;47.384;19.218;2022-12-11T03:56:25;7.68;;;2.17;;
40757;SDS011;26462;47.384;19.218;2022-12-11T03:58:55;5.18;;;2.30;;
40757;SDS011;26462;47.384;19.218;2022-12-11T04:01:30;3.58;;;1.73;;
40757;SDS011;26462;47.384;19.218;2022-12-11T04:03:57;5.30;;;2.03;;
40757;SDS011;26462;47.384;19.218;2022-12-11T04:06:28;3.70;;;1.58;;
40757;SDS011;26462;47.384;19.218;2022-12-11T04:08:55;4.25;;;1.70;;
40757;SDS011;26462;47.384;19.218;2022-12-11T04:11:25;4.47;;;2.10;;
40757;SDS011;26462;47.384;19.218;2022-12-11T04:14:06;4.22;;;2.00;;
40757;SDS011;26462;47.384;19.218;2022-12-11T04:16:57;6.00;;;1.92;;
40757;SDS011;26462;47.384;19.218;2022-12-11T04:19:25;4.68;;;1.70;;
40757;SDS011;26462;47.384;19.218;2022-12-11T04:22:13;4.35;;;2.00;;
40757;SDS011;26462;47.384;19.218;2022-12-11T04:25:02;3.92;;;2.15;;
40757;SDS011;26462;47.384;19.218;2022-12-11T04:27:31;5.68;;;1.70;;
40757;SDS011;26462;47.384;19.218;2022-12-11T04:30:18;3.78;;;1.45;;
40757;SDS011;26462;47.384;19.218;2022-12-11T04:32:48;4.78;;;1.63;;
40757;SDS011;26462;47.384;19.218;2022-12-11T04:35:17;3.60;;;1.25;;
40757;SDS011;26462;47.384;19.218;2022-12-11T04:37:45;3.17;;;1.80;;
40757;SDS011;26462;47.384;19.218;2022-12-11T04:40:14;5.30;;;1.83;;
40757;SDS011;26462;47.384;19.218;2022-12-11T04:42:42;2.80;;;1.60;;
40757;SDS011;26462;47.384;19.218;2022-12-11T04:45:10;4.70;;;1.95;;
40757;SDS011;26462;47.384;19.218;2022-12-11T04:47:39;4.35;;;2.00;;
40757;SDS011;26462;47.384;19.218;2022-12-11T04:50:07;6.63;;;2.53;;
40757;SDS011;26462;47.384;19.218;2022-12-11T04:52:36;3.55;;;1.60;;
40757;SDS011;26462;47.384;19.218;2022-12-11T04:55:05;3.90;;;1.80;;
40757;SDS011;26462;47.384;19.218;2022-12-11T04:57:36;5.47;;;2.15;;
40757;SDS011;26462;47.384;19.218;2022-12-11T05:00:06;5.03;;;2.00;;
40757;SDS011;26462;47.384;19.218;2022-12-11T05:02:37;5.90;;;2.55;;
40757;SDS011;26462;47.384;19.218;2022-12-11T05:05:07;4.05;;;1.85;;
40757;SDS011;26462;47.384;19.218;2022-12-11T05:07:37;4.65;;;2.08;;
40757;SDS011;26462;47.384;19.218;2022-12-11T05:10:06;7.13;;;3.35;;
40757;SDS011;26462;47.384;19.218;2022-12-11T05:12:35;7.93;;;3.00;;
40757;SDS011;26462;47.384;19.218;2022-12-11T05:15:02;7.07;;;3.13;;
40757;SDS011;26462;47.384;19.218;2022-12-11T05:17:34;5.70;;;2.47;;
40757;SDS011;26462;47.384;19.218;2022-12-11T05:20:02;6.53;;;3.17;;
40757;SDS011;26462;47.384;19.218;2022-12-11T05:22:30;7.97;;;3.22;;
40757;SDS011;26462;47.384;19.218;2022-12-11T05:24:58;7.95;;;3.50;;
40757;SDS011;26462;47.384;19.218;2022-12-11T05:27:25;10.00;;;3.63;;
40757;SDS011;26462;47.384;19.218;2022-12-11T05:29:53;11.27;;;3.92;;
40757;SDS011;26462;47.384;19.218;2022-12-11T05:32:25;11.68;;;5.00;;
40757;SDS011;26462;47.384;19.218;2022-12-11T05:34:53;8.20;;;3.78;;
40757;SDS011;26462;47.384;19.218;2022-12-11T05:37:21;15.75;;;7.07;;
40757;SDS011;26462;47.384;19.218;2022-12-11T05:39:49;22.38;;;9.32;;
40757;SDS011;26462;47.384;19.218;2022-12-11T05:42:16;10.57;;;4.82;;
40757;SDS011;26462;47.384;19.218;2022-12-11T05:44:49;11.23;;;6.70;;
40757;SDS011;26462;47.384;19.218;2022-12-11T05:47:17;9.30;;;4.07;;
40757;SDS011;26462;47.384;19.218;2022-12-11T05:49:46;10.55;;;4.63;;
40757;SDS011;26462;47.384;19.218;2022-12-11T05:52:13;11.10;;;5.05;;
40757;SDS011;26462;47.384;19.218;2022-12-11T05:54:42;9.50;;;4.07;;
40757;SDS011;26462;47.384;19.218;2022-12-11T05:57:13;9.88;;;4.60;;
40757;SDS011;26462;47.384;19.218;2022-12-11T05:59:41;10.35;;;4.68;;
40757;SDS011;26462;47.384;19.218;2022-12-11T06:02:08;7.90;;;3.53;;
40757;SDS011;26462;47.384;19.218;2022-12-11T06:04:36;10.38;;;4.53;;
40757;SDS011;26462;47.384;19.218;2022-12-11T06:07:03;11.27;;;4.72;;
40757;SDS011;26462;47.384;19.218;2022-12-11T06:09:32;8.60;;;4.13;;
40757;SDS011;26462;47.384;19.218;2022-12-11T06:12:01;7.85;;;3.95;;
40757;SDS011;26462;47.384;19.218;2022-12-11T06:14:28;12.48;;;4.78;;
40757;SDS011;26462;47.384;19.218;2022-12-11T06:16:55;13.10;;;4.97;;
40757;SDS011;26462;47.384;19.218;2022-12-11T06:19:23;10.77;;;5.40;;
40757;SDS011;26462;47.384;19.218;2022-12-11T06:21:50;11.05;;;5.35;;
40757;SDS011;26462;47.384;19.218;2022-12-11T06:24:18;15.15;;;5.57;;
40757;SDS011;26462;47.384;19.218;2022-12-11T06:26:45;11.20;;;4.03;;
40757;SDS011;26462;47.384;19.218;2022-12-11T06:29:13;7.38;;;3.63;;
40757;SDS011;26462;47.384;19.218;2022-12-11T06:31:41;9.07;;;3.65;;
40757;SDS011;26462;47.384;19.218;2022-12-11T06:34:12;7.80;;;4.05;;
40757;SDS011;26462;47.384;19.218;2022-12-11T06:36:40;10.48;;;3.28;;
40757;SDS011;26462;47.384;19.218;2022-12-11T06:39:07;10.18;;;4.53;;
40757;SDS011;26462;47.384;19.218;2022-12-11T06:41:35;9.00;;;4.88;;
40757;SDS011;26462;47.384;19.218;2022-12-11T06:44:02;9.15;;;4.00;;
40757;SDS011;26462;47.384;19.218;2022-12-11T06:46:30;9.63;;;4.05;;
40757;SDS011;26462;47.384;19.218;2022-12-11T06:48:57;7.00;;;2.83;;
40757;SDS011;26462;47.384;19.218;2022-12-11T06:51:25;9.90;;;3.67;;
40757;SDS011;26462;47.384;19.218;2022-12-11T06:53:54;7.28;;;3.60;;
40757;SDS011;26462;47.384;19.218;2022-12-11T06:56:22;11.25;;;4.25;;
40757;SDS011;26462;47.384;19.218;2022-12-11T06:58:53;8.25;;;3.88;;
40757;SDS011;26462;47.384;19.218;2022-12-11T07:01:24;9.90;;;4.60;;
40757;SDS011;26462;47.384;19.218;2022-12-11T07:04:01;7.30;;;3.28;;
40757;SDS011;26462;47.384;19.218;2022-12-11T07:06:30;8.82;;;3.72;;
40757;SDS011;26462;47.384;19.218;2022-12-11T07:09:02;9.70;;;4.55;;
40757;SDS011;26462;47.384;19.218;2022-12-11T07:11:31;9.90;;;4.07;;
40757;SDS011;26462;47.384;19.218;2022-12-11T07:14:01;8.77;;;4.38;;
40757;SDS011;26462;47.384;19.218;2022-12-11T07:16:29;9.57;;;3.67;;
40757;SDS011;26462;47.384;19.218;2022-12-11T07:18:59;11.32;;;5.10;;
40757;SDS011;26462;47.384;19.218;2022-12-11T07:21:26;8.95;;;3.80;;
40757;SDS011;26462;47.384;19.218;2022-12-11T07:23:57;11.00;;;5.78;;
40757;SDS011;26462;47.384;19.218;2022-12-11T07:26:30;7.93;;;3.88;;
40757;SDS011;26462;47.384;19.218;2022-12-11T07:29:01;9.77;;;4.80;;
40757;SDS011;26462;47.384;19.218;2022-12-11T07:31:29;9.15;;;4.50;;
40757;SDS011;26462;47.384;19.218;2022-12-11T07:34:03;8.73;;;3.70;;
40757;SDS011;26462;47.384;19.218;2022-12-11T07:36:32;10.57;;;5.13;;
40757;SDS011;26462;47.384;19.218;2022-12-11T07:39:00;11.25;;;4.82;;
40757;SDS011;26462;47.384;19.218;2022-12-11T07:41:34;8.82;;;4.15;;
40757;SDS011;26462;47.384;19.218;2022-12-11T07:44:10;9.45;;;4.57;;
40757;SDS011;26462;47.384;19.218;2022-12-11T07:46:58;8.77;;;4.55;;
40757;SDS011;26462;47.384;19.218;2022-12-11T07:49:28;11.30;;;4.78;;
40757;SDS011;26462;47.384;19.218;2022-12-11T07:52:00;8.82;;;3.85;;
40757;SDS011;26462;47.384;19.218;2022-12-11T07:54:36;7.40;;;3.55;;
40757;SDS011;26462;47.384;19.218;2022-12-11T07:57:05;10.23;;;4.15;;
40757;SDS011;26462;47.384;19.218;2022-12-11T07:59:42;8.20;;;4.10;;
40757;SDS011;26462;47.384;19.218;2022-12-11T08:02:17;8.82;;;4.45;;
40757;SDS011;26462;47.384;19.218;2022-12-11T08:05:07;8.98;;;4.43;;
40757;SDS011;26462;47.384;19.218;2022-12-11T08:07:56;10.95;;;4.13;;
40757;SDS011;26462;47.384;19.218;2022-12-11T08:10:24;9.48;;;4.82;;
40757;SDS011;26462;47.384;19.218;2022-12-11T08:12:57;11.15;;;4.82;;
40757;SDS011;26462;47.384;19.218;2022-12-11T08:15:24;10.70;;;3.85;;
40757;SDS011;26462;47.384;19.218;2022-12-11T08:17:53;8.77;;;4.38;;
40757;SDS011;26462;47.384;19.218;2022-12-11T08:20:27;9.25;;;4.78;;
40757;SDS011;26462;47.384;19.218;2022-12-11T08:22:56;8.07;;;3.78;;
40757;SDS011;26462;47.384;19.218;2022-12-11T08:25:26;9.80;;;3.72;;
40757;SDS011;26462;47.384;19.218;2022-12-11T08:27:58;9.57;;;5.07;;
40757;SDS011;26462;47.384;19.218;2022-12-11T08:30:28;9.07;;;4.43;;
40757;SDS011;26462;47.384;19.218;2022-12-11T08:32:57;8.38;;;4.80;;
40757;SDS011;26462;47.384;19.218;2022-12-11T08:35:27;9.15;;;4.30;;
40757;SDS011;26462;47.384;19.218;2022-12-11T08:38:03;12.52;;;4.45;;
40757;SDS011;26462;47.384;19.218;2022-12-11T08:40:44;6.68;;;3.42;;
40757;SDS011;26462;47.384;19.218;2022-12-11T08:43:15;11.48;;;5.32;;
40757;SDS011;26462;47.384;19.218;2022-12-11T08:45:45;8.18;;;3.65;;
40757;SDS011;26462;47.384;19.218;2022-12-11T08:48:29;7.07;;;3.40;;
40757;SDS011;26462;47.384;19.218;2022-12-11T08:51:06;8.93;;;4.72;;
40757;SDS011;26462;47.384;19.218;2022-12-11T08:53:41;8.88;;;3.90;;
40757;SDS011;26462;47.384;19.218;2022-12-11T08:56:14;9.60;;;4.78;;
40757;SDS011;26462;47.384;19.218;2022-12-11T08:59:13;7.97;;;4.40;;
40757;SDS011;26462;47.384;19.218;2022-12-11T09:01:42;11.48;;;6.38;;
40757;SDS011;26462;47.384;19.218;2022-12-11T09:07:34;8.45;;;4.10;;
40757;SDS011;26462;47.384;19.218;2022-12-11T09:10:03;11.50;;;5.63;;
40757;SDS011;26462;47.384;19.218;2022-12-11T09:12:38;88.97;;;36.80;;
40757;SDS011;26462;47.384;19.218;2022-12-11T09:16:04;28.50;;;13.75;;
40757;SDS011;26462;47.384;19.218;2022-12-11T09:18:57;10.38;;;4.97;;
40757;SDS011;26462;47.384;19.218;2022-12-11T09:21:29;6.57;;;3.15;;
40757;SDS011;26462;47.384;19.218;2022-12-11T09:24:25;9.02;;;5.07;;
40757;SDS011;26462;47.384;19.218;2022-12-11T09:26:58;11.30;;;6.95;;
40757;SDS011;26462;47.384;19.218;2022-12-11T09:32:16;23.45;;;11.82;;
40757;SDS011;26462;47.384;19.218;2022-12-11T09:35:14;9.93;;;5.63;;
40757;SDS011;26462;47.384;19.218;2022-12-11T09:38:02;8.13;;;3.80;;
40757;SDS011;26462;47.384;19.218;2022-12-11T09:40:31;11.73;;;7.35;;
40757;SDS011;26462;47.384;19.218;2022-12-11T09:43:41;20.23;;;13.18;;
40757;SDS011;26462;47.384;19.218;2022-12-11T09:46:17;9.52;;;5.43;;
40757;SDS011;26462;47.384;19.218;2022-12-11T09:49:26;5.72;;;2.85;;
40757;SDS011;26462;47.384;19.218;2022-12-11T09:52:36;6.88;;;3.95;;
40757;SDS011;26462;47.384;19.218;2022-12-11T09:55:21;7.75;;;4.30;;
40757;SDS011;26462;47.384;19.218;2022-12-11T10:00:48;7.30;;;4.60;;
40757;SDS011;26462;47.384;19.218;2022-12-11T10:07:00;8.82;;;3.63;;
40757;SDS011;26462;47.384;19.218;2022-12-11T10:09:57;4.13;;;2.10;;
40757;SDS011;26462;47.384;19.218;2022-12-11T10:19:36;19.98;;;8.32;;
40757;SDS011;26462;47.384;19.218;2022-12-11T10:22:11;12.68;;;5.32;;
40757;SDS011;26462;47.384;19.218;2022-12-11T10:27:53;3.88;;;2.05;;
40757;SDS011;26462;47.384;19.218;2022-12-11T10:33:59;8.02;;;3.80;;
40757;SDS011;26462;47.384;19.218;2022-12-11T10:36:44;8.90;;;4.30;;
40757;SDS011;26462;47.384;19.218;2022-12-11T10:41:47;5.93;;;3.33;;
40757;SDS011;26462;47.384;19.218;2022-12-11T10:45:14;9.77;;;5.13;;
40757;SDS011;26462;47.384;19.218;2022-12-11T10:48:24;7.63;;;2.88;;
40757;SDS011;26462;47.384;19.218;2022-12-11T10:51:02;9.57;;;4.40;;
40757;SDS011;26462;47.384;19.218;2022-12-11T10:53:51;7.38;;;3.30;;
40757;SDS011;26462;47.384;19.218;2022-12-11T10:56:33;12.48;;;6.18;;
40757;SDS011;26462;47.384;19.218;2022-12-11T10:59:03;16.42;;;7.38;;
40757;SDS011;26462;47.384;19.218;2022-12-11T11:01:31;9.27;;;4.60;;
40757;SDS011;26462;47.384;19.218;2022-12-11T11:04:13;17.15;;;8.15;;
40757;SDS011;26462;47.384;19.218;2022-12-11T11:09:45;8.20;;;3.67;;
40757;SDS011;26462;47.384;19.218;2022-12-11T11:12:40;10.18;;;5.05;;
40757;SDS011;26462;47.384;19.218;2022-12-11T11:15:26;5.97;;;2.70;;
40757;SDS011;26462;47.384;19.218;2022-12-11T11:18:21;9.65;;;4.45;;
40757;SDS011;26462;47.384;19.218;2022-12-11T11:20:53;10.80;;;3.58;;
40757;SDS011;26462;47.384;19.218;2022-12-11T11:23:21;9.85;;;5.80;;
40757;SDS011;26462;47.384;19.218;2022-12-11T11:25:56;5.40;;;2.40;;
40757;SDS011;26462;47.384;19.218;2022-12-11T11:28:29;10.35;;;5.35;;
40757;SDS011;26462;47.384;19.218;2022-12-11T11:31:09;9.10;;;5.80;;
40757;SDS011;26462;47.384;19.218;2022-12-11T11:36:28;7.57;;;3.00;;
40757;SDS011;26462;47.384;19.218;2022-12-11T11:40:36;6.72;;;3.53;;
40757;SDS011;26462;47.384;19.218;2022-12-11T11:42:02;7.18;;;3.78;;
40757;SDS011;26462;47.384;19.218;2022-12-11T11:44:41;9.13;;;4.45;;
40757;SDS011;26462;47.384;19.218;2022-12-11T11:47:44;10.93;;;7.22;;
40757;SDS011;26462;47.384;19.218;2022-12-11T11:50:47;22.38;;;12.43;;
40757;SDS011;26462;47.384;19.218;2022-12-11T11:54:34;18.95;;;8.75;;
40757;SDS011;26462;47.384;19.218;2022-12-11T12:00:05;5.95;;;2.92;;
40757;SDS011;26462;47.384;19.218;2022-12-11T12:03:25;5.63;;;2.60;;
40757;SDS011;26462;47.384;19.218;2022-12-11T12:09:38;5.60;;;2.70;;
40757;SDS011;26462;47.384;19.218;2022-12-11T12:15:16;7.40;;;3.85;;
40757;SDS011;26462;47.384;19.218;2022-12-11T12:23:56;6.70;;;3.33;;
40757;SDS011;26462;47.384;19.218;2022-12-11T12:33:59;11.60;;;5.88;;
40757;SDS011;26462;47.384;19.218;2022-12-11T12:36:37;6.90;;;2.85;;
40757;SDS011;26462;47.384;19.218;2022-12-11T12:39:53;6.60;;;3.30;;
40757;SDS011;26462;47.384;19.218;2022-12-11T12:42:31;7.10;;;2.78;;
40757;SDS011;26462;47.384;19.218;2022-12-11T12:47:45;8.38;;;3.42;;
40757;SDS011;26462;47.384;19.218;2022-12-11T12:50:26;16.52;;;7.90;;
40757;SDS011;26462;47.384;19.218;2022-12-11T12:53:03;13.35;;;4.68;;
40757;SDS011;26462;47.384;19.218;2022-12-11T12:55:32;8.88;;;3.00;;
40757;SDS011;26462;47.384;19.218;2022-12-11T12:58:06;9.93;;;4.07;;
40757;SDS011;26462;47.384;19.218;2022-12-11T13:00:51;11.05;;;5.03;;
40757;SDS011;26462;47.384;19.218;2022-12-11T13:03:24;7.30;;;3.60;;
40757;SDS011;26462;47.384;19.218;2022-12-11T13:05:59;9.35;;;4.03;;
40757;SDS011;26462;47.384;19.218;2022-12-11T13:08:36;10.50;;;4.77;;
40757;SDS011;26462;47.384;19.218;2022-12-11T13:11:10;16.40;;;6.80;;
40757;SDS011;26462;47.384;19.218;2022-12-11T13:13:43;8.95;;;4.15;;
40757;SDS011;26462;47.384;19.218;2022-12-11T13:16:23;7.85;;;2.97;;
40757;SDS011;26462;47.384;19.218;2022-12-11T13:18:52;13.02;;;5.18;;
40757;SDS011;26462;47.384;19.218;2022-12-11T13:21:31;13.98;;;6.35;;
40757;SDS011;26462;47.384;19.218;2022-12-11T13:24:13;10.52;;;5.90;;
40757;SDS011;26462;47.384;19.218;2022-12-11T13:26:50;13.27;;;5.38;;
40757;SDS011;26462;47.384;19.218;2022-12-11T13:32:01;15.73;;;7.35;;
40757;SDS011;26462;47.384;19.218;2022-12-11T13:34:35;18.60;;;8.55;;
40757;SDS011;26462;47.384;19.218;2022-12-11T13:37:06;33.97;;;16.27;;
40757;SDS011;26462;47.384;19.218;2022-12-11T13:39:51;54.38;;;25.63;;
40757;SDS011;26462;47.384;19.218;2022-12-11T13:42:35;36.70;;;17.98;;
40757;SDS011;26462;47.384;19.218;2022-12-11T13:45:16;21.45;;;10.75;;
40757;SDS011;26462;47.384;19.218;2022-12-11T13:47:56;21.15;;;9.40;;
40757;SDS011;26462;47.384;19.218;2022-12-11T13:50:29;19.02;;;9.10;;
40757;SDS011;26462;47.384;19.218;2022-12-11T13:53:01;14.30;;;7.88;;
40757;SDS011;26462;47.384;19.218;2022-12-11T13:55:31;8.82;;;4.35;;
40757;SDS011;26462;47.384;19.218;2022-12-11T13:58:02;10.98;;;5.45;;
40757;SDS011;26462;47.384;19.218;2022-12-11T14:00:30;12.35;;;5.78;;
40757;SDS011;26462;47.384;19.218;2022-12-11T14:03:00;12.50;;;5.57;;
40757;SDS011;26462;47.384;19.218;2022-12-11T14:05:33;13.68;;;5.93;;
40757;SDS011;26462;47.384;19.218;2022-12-11T14:08:02;23.40;;;10.00;;
40757;SDS011;26462;47.384;19.218;2022-12-11T14:11:03;11.20;;;6.40;;
40757;SDS011;26462;47.384;19.218;2022-12-11T14:13:35;18.90;;;10.43;;
40757;SDS011;26462;47.384;19.218;2022-12-11T14:16:07;32.67;;;15.07;;
40757;SDS011;26462;47.384;19.218;2022-12-11T14:18:34;33.92;;;15.63;;
40757;SDS011;26462;47.384;19.218;2022-12-11T14:21:03;22.38;;;12.77;;
40757;SDS011;26462;47.384;19.218;2022-12-11T14:23:34;12.27;;;6.55;;
40757;SDS011;26462;47.384;19.218;2022-12-11T14:26:17;18.60;;;9.48;;
40757;SDS011;26462;47.384;19.218;2022-12-11T14:31:29;10.20;;;5.45;;
40757;SDS011;26462;47.384;19.218;2022-12-11T14:34:13;16.23;;;6.47;;
40757;SDS011;26462;47.384;19.218;2022-12-11T14:36:45;13.30;;;7.22;;
40757;SDS011;26462;47.384;19.218;2022-12-11T14:42:29;12.15;;;6.05;;
40757;SDS011;26462;47.384;19.218;2022-12-11T14:44:54;10.38;;;5.28;;
40757;SDS011;26462;47.384;19.218;2022-12-11T14:50:17;12.15;;;5.80;;
40757;SDS011;26462;47.384;19.218;2022-12-11T14:52:56;19.10;;;8.13;;
40757;SDS011;26462;47.384;19.218;2022-12-11T14:55:33;35.13;;;12.52;;
40757;SDS011;26462;47.384;19.218;2022-12-11T15:00:58;30.58;;;12.10;;
40757;SDS011;26462;47.384;19.218;2022-12-11T15:03:38;20.75;;;9.25;;
40757;SDS011;26462;47.384;19.218;2022-12-11T15:06:27;17.27;;;8.52;;
40757;SDS011;26462;47.384;19.218;2022-12-11T15:09:07;21.00;;;10.15;;
40757;SDS011;26462;47.384;19.218;2022-12-11T15:11:51;50.03;;;25.40;;
40757;SDS011;26462;47.384;19.218;2022-12-11T15:14:21;27.10;;;13.10;;
40757;SDS011;26462;47.384;19.218;2022-12-11T15:16:49;19.40;;;10.32;;
40757;SDS011;26462;47.384;19.218;2022-12-11T15:19:22;22.60;;;10.05;;
40757;SDS011;26462;47.384;19.218;2022-12-11T15:22:06;16.35;;;7.68;;
40757;SDS011;26462;47.384;19.218;2022-12-11T15:24:36;19.33;;;11.07;;
40757;SDS011;26462;47.384;19.218;2022-12-11T15:27:17;13.35;;;6.22;;
40757;SDS011;26462;47.384;19.218;2022-12-11T15:29:59;18.30;;;9.05;;
40757;SDS011;26462;47.384;19.218;2022-12-11T15:32:28;16.00;;;6.75;;
40757;SDS011;26462;47.384;19.218;2022-12-11T15:34:58;16.45;;;7.57;;
40757;SDS011;26462;47.384;19.218;2022-12-11T15:37:32;15.93;;;6.57;;
40757;SDS011;26462;47.384;19.218;2022-12-11T15:40:05;20.20;;;10.00;;
40757;SDS011;26462;47.384;19.218;2022-12-11T15:42:34;18.88;;;9.15;;
40757;SDS011;26462;47.384;19.218;2022-12-11T15:45:05;23.23;;;10.73;;
40757;SDS011;26462;47.384;19.218;2022-12-11T15:47:38;29.88;;;12.73;;
40757;SDS011;26462;47.384;19.218;2022-12-11T15:50:19;17.67;;;7.40;;
40757;SDS011;26462;47.384;19.218;2022-12-11T15:52:47;21.15;;;7.15;;
40757;SDS011;26462;47.384;19.218;2022-12-11T15:55:16;20.95;;;8.15;;
40757;SDS011;26462;47.384;19.218;2022-12-11T16:00:21;18.02;;;8.55;;
40757;SDS011;26462;47.384;19.218;2022-12-11T16:02:49;23.30;;;11.23;;
40757;SDS011;26462;47.384;19.218;2022-12-11T16:05:17;19.17;;;8.48;;
40757;SDS011;26462;47.384;19.218;2022-12-11T16:07:46;18.83;;;9.25;;
40757;SDS011;26462;47.384;19.218;2022-12-11T16:10:19;22.02;;;10.45;;
40757;SDS011;26462;47.384;19.218;2022-12-11T16:12:48;16.92;;;8.15;;
40757;SDS011;26462;47.384;19.218;2022-12-11T16:15:16;19.17;;;9.75;;
40757;SDS011;26462;47.384;19.218;2022-12-11T16:20:24;13.30;;;6.75;;
40757;SDS011;26462;47.384;19.218;2022-12-11T16:22:52;18.55;;;8.20;;
40757;SDS011;26462;47.384;19.218;2022-12-11T16:25:20;22.48;;;9.85;;
40757;SDS011;26462;47.384;19.218;2022-12-11T16:27:48;14.85;;;7.07;;
40757;SDS011;26462;47.384;19.218;2022-12-11T16:30:16;21.50;;;10.35;;
40757;SDS011;26462;47.384;19.218;2022-12-11T16:32:44;18.52;;;9.30;;
40757;SDS011;26462;47.384;19.218;2022-12-11T16:35:14;15.05;;;6.80;;
40757;SDS011;26462;47.384;19.218;2022-12-11T16:37:42;13.40;;;6.15;;
40757;SDS011;26462;47.384;19.218;2022-12-11T16:40:10;15.88;;;5.60;;
40757;SDS011;26462;47.384;19.218;2022-12-11T16:42:39;14.73;;;5.85;;
40757;SDS011;26462;47.384;19.218;2022-12-11T16:45:10;13.20;;;5.82;;
40757;SDS011;26462;47.384;19.218;2022-12-11T16:47:45;11.43;;;6.20;;
40757;SDS011;26462;47.384;19.218;2022-12-11T16:50:14;15.88;;;6.90;;